Time;durP1;ratioP1;P1;durP2;ratioP2;P2;SDS_P1;SDS_P2;PMS_P1;PMS_P2;Temp;Humidity;BMP_temperature;BMP_pressure;BME280_temperature;BME280_humidity;BME280_pressure;Samples;Min_cycle;Max_cycle;Signal;HPM_P1;HPM_P2
2023/10/17 00:02:03;;;;;;;0.00;0.00;;;5.40;1.00;;;;;;5015206;28;20041;-77
2023/10/17 00:04:32;;;;;;;0.25;0.25;;;5.20;1.00;;;;;;5016386;28;20494;-77
2023/10/17 00:06:58;;;;;;;0.00;0.00;;;5.00;1.00;;;;;;5016317;28;20041;-77
2023/10/17 00:09:25;;;;;;;0.00;0.00;;;4.80;1.00;;;;;;5016251;28;20442;-77
2023/10/17 00:14:17;;;;;;;0.00;0.00;;;4.40;1.00;;;;;;5016531;28;20404;-76
2023/10/17 00:16:43;;;;;;;0.20;0.10;;;4.30;1.00;;;;;;5016053;28;20042;-76
2023/10/17 00:19:09;;;;;;;0.20;0.20;;;4.30;97.40;;;;;;5016698;28;20113;-76
2023/10/17 00:21:36;;;;;;;0.50;0.50;;;4.30;99.90;;;;;;5016342;28;20048;-77
2023/10/17 00:24:08;;;;;;;0.00;0.00;;;4.30;99.90;;;;;;5016355;28;20045;-76
2023/10/17 00:26:36;;;;;;;0.20;0.20;;;4.20;99.90;;;;;;5015711;28;20050;-78
2023/10/17 00:29:05;;;;;;;0.00;0.00;;;4.10;99.90;;;;;;5016418;28;20045;-77
2023/10/17 00:31:31;;;;;;;0.65;0.65;;;3.90;99.90;;;;;;5016570;28;20053;-77
2023/10/17 00:34:00;;;;;;;0.17;0.17;;;3.80;99.90;;;;;;5016629;28;20049;-77
2023/10/17 00:36:27;;;;;;;0.00;0.00;;;3.60;99.90;;;;;;5016386;28;20045;-78
2023/10/17 00:38:54;;;;;;;0.00;0.00;;;3.60;99.90;;;;;;5016169;28;20057;-78
2023/10/17 00:41:33;;;;;;;0.10;0.10;;;3.50;1.00;;;;;;5015148;28;20081;-77
2023/10/17 00:43:59;;;;;;;0.00;0.00;;;3.50;1.00;;;;;;5016716;28;20085;-78
2023/10/17 00:46:25;;;;;;;0.75;0.75;;;3.40;1.00;;;;;;5016476;28;20076;-77
2023/10/17 00:48:52;;;;;;;0.00;0.00;;;3.40;1.00;;;;;;5016783;28;20049;-78
2023/10/17 00:51:21;;;;;;;0.00;0.00;;;3.50;1.00;;;;;;5016191;28;20038;-77
2023/10/17 00:53:47;;;;;;;0.00;0.00;;;3.70;1.00;;;;;;5016406;28;20077;-78
2023/10/17 00:56:13;;;;;;;0.30;0.30;;;3.80;22.90;;;;;;5016156;28;20045;-78
2023/10/17 00:58:42;;;;;;;0.10;0.10;;;4.00;47.60;;;;;;5016374;28;20054;-77
2023/10/17 01:01:20;;;;;;;0.10;0.10;;;4.10;71.20;;;;;;5015089;28;20065;-78
2023/10/17 01:03:48;;;;;;;0.52;0.43;;;4.20;89.10;;;;;;5016836;28;20048;-78
2023/10/17 01:06:28;;;;;;;0.00;0.00;;;4.30;96.80;;;;;;5015760;28;20041;-77
2023/10/17 01:08:53;;;;;;;0.52;0.52;;;4.40;99.90;;;;;;5014361;28;20049;-78
2023/10/17 01:11:23;;;;;;;0.30;0.30;;;4.50;99.90;;;;;;5014519;28;20085;-78
2023/10/17 01:13:56;;;;;;;0.20;0.20;;;4.50;99.90;;;;;;5015583;28;20049;-78
2023/10/17 01:16:24;;;;;;;0.20;0.20;;;4.50;99.90;;;;;;5013741;28;20510;-77
2023/10/17 01:18:50;;;;;;;0.00;0.00;;;4.60;99.90;;;;;;5014273;28;20047;-78
2023/10/17 01:21:21;;;;;;;0.00;0.00;;;4.50;99.90;;;;;;5013638;28;20038;-78
2023/10/17 01:23:53;;;;;;;0.17;0.13;;;4.50;99.90;;;;;;5015426;28;20053;-78
2023/10/17 01:26:26;;;;;;;0.20;0.20;;;4.50;99.90;;;;;;5002254;28;20038;-77
2023/10/17 01:28:53;;;;;;;0.70;0.35;;;4.50;95.60;;;;;;5015592;28;20054;-78
2023/10/17 01:31:22;;;;;;;0.08;0.08;;;4.50;88.90;;;;;;5015046;28;20090;-77
2023/10/17 01:33:52;;;;;;;0.10;0.10;;;4.60;72.10;;;;;;5015058;28;20076;-78
2023/10/17 01:36:19;;;;;;;0.28;0.28;;;4.70;43.50;;;;;;5014866;28;20081;-77
2023/10/17 01:38:46;;;;;;;0.08;0.08;;;4.80;12.30;;;;;;5014824;28;20057;-77
2023/10/17 01:41:12;;;;;;;0.00;0.00;;;4.80;1.00;;;;;;5015158;28;20065;-78
2023/10/17 01:43:42;;;;;;;0.50;0.50;;;4.80;1.00;;;;;;5013282;28;20079;-78
2023/10/17 01:46:14;;;;;;;0.38;0.20;;;4.80;1.00;;;;;;5012859;28;20037;-78
2023/10/17 01:48:44;;;;;;;0.00;0.00;;;4.70;1.00;;;;;;5013951;28;20107;-78
2023/10/17 01:51:12;;;;;;;0.95;0.45;;;4.70;1.00;;;;;;5014968;28;20049;-77
2023/10/17 01:53:39;;;;;;;0.00;0.00;;;4.70;99.90;;;;;;5013359;28;20049;-78
2023/10/17 01:56:14;;;;;;;0.10;0.10;;;4.70;99.90;;;;;;5014587;28;20150;-78
2023/10/17 01:58:50;;;;;;;0.00;0.00;;;4.60;99.90;;;;;;5015111;28;20387;-78
2023/10/17 02:01:29;;;;;;;0.25;0.25;;;4.50;99.90;;;;;;5014363;28;20044;-77
2023/10/17 02:04:03;;;;;;;0.43;0.40;;;4.40;99.90;;;;;;5014634;28;20049;-77
2023/10/17 02:06:33;;;;;;;0.15;0.10;;;4.40;99.90;;;;;;5013897;28;20395;-78
2023/10/17 02:09:00;;;;;;;0.03;0.03;;;4.40;99.90;;;;;;5014380;28;20038;-76
2023/10/17 02:11:41;;;;;;;0.00;0.00;;;4.40;1.00;;;;;;5015063;28;20042;-78
2023/10/17 02:14:08;;;;;;;0.70;0.70;;;4.40;1.00;;;;;;5014977;28;20064;-77
2023/10/17 02:16:35;;;;;;;0.00;0.00;;;4.30;1.00;;;;;;5014239;28;20104;-77
2023/10/17 02:19:07;;;;;;;0.03;0.03;;;4.20;1.00;;;;;;5013674;28;20053;-78
2023/10/17 02:21:33;;;;;;;0.63;0.63;;;4.00;1.00;;;;;;5014849;28;20046;-78
2023/10/17 02:24:01;;;;;;;0.00;0.00;;;3.90;1.00;;;;;;5014240;28;20034;-78
2023/10/17 02:26:29;;;;;;;0.00;0.00;;;3.90;7.20;;;;;;5012603;28;20049;-79
2023/10/17 02:29:07;;;;;;;0.10;0.10;;;3.80;19.80;;;;;;5014130;28;20526;-77
2023/10/17 02:31:36;;;;;;;0.00;0.00;;;3.70;22.30;;;;;;5014758;28;20046;-77
2023/10/17 02:34:01;;;;;;;0.13;0.13;;;3.50;22.50;;;;;;5016393;28;20070;-78
2023/10/17 02:36:27;;;;;;;0.10;0.10;;;3.40;23.50;;;;;;5018252;28;20076;-77
2023/10/17 02:38:53;;;;;;;0.52;0.52;;;3.30;27.30;;;;;;5018433;28;20673;-77
2023/10/17 02:41:19;;;;;;;0.00;0.00;;;3.30;31.80;;;;;;5018506;28;20049;-77
2023/10/17 02:43:54;;;;;;;0.00;0.00;;;3.20;37.80;;;;;;5016681;28;20050;-78
2023/10/17 02:46:21;;;;;;;0.00;0.00;;;3.20;46.10;;;;;;5009984;28;20069;-78
2023/10/17 02:48:47;;;;;;;0.00;0.00;;;3.00;48.30;;;;;;5017769;28;20038;-77
2023/10/17 02:51:31;;;;;;;0.10;0.10;;;2.90;49.20;;;;;;5017310;28;20454;-77
2023/10/17 02:53:58;;;;;;;0.00;0.00;;;2.90;52.40;;;;;;5016872;28;20056;-79
2023/10/17 02:56:24;;;;;;;0.65;0.65;;;2.80;56.60;;;;;;5017895;28;20508;-79
2023/10/17 02:58:59;;;;;;;0.20;0.20;;;3.00;66.20;;;;;;5018364;28;20056;-78
2023/10/17 03:01:27;;;;;;;0.00;0.00;;;3.20;85.80;;;;;;5016084;28;20403;-79
2023/10/17 03:03:53;;;;;;;0.15;0.15;;;3.20;95.00;;;;;;5017666;28;20042;-76
2023/10/17 03:06:18;;;;;;;0.30;0.30;;;3.00;96.50;;;;;;5032697;28;20515;-76
2023/10/17 03:08:51;;;;;;;0.00;0.00;;;2.90;97.90;;;;;;5017902;28;20081;-76
2023/10/17 03:12:07;;;;;;;5.93;0.98;;;2.80;99.00;;;;;;5017683;28;20464;-76
2023/10/17 03:14:19;;;;;;;0.00;0.00;;;2.70;98.80;;;;;;5018156;28;20523;-75
2023/10/17 03:16:52;;;;;;;0.00;0.00;;;2.60;99.90;;;;;;5032403;28;20049;-76
2023/10/17 03:19:25;;;;;;;0.05;0.05;;;2.50;99.90;;;;;;5016251;28;20408;-79
2023/10/17 03:21:53;;;;;;;0.00;0.00;;;2.70;99.90;;;;;;5017892;28;20373;-76
2023/10/17 03:24:19;;;;;;;0.00;0.00;;;2.70;99.90;;;;;;5016710;28;20042;-76
2023/10/17 03:26:54;;;;;;;0.00;0.00;;;2.50;99.90;;;;;;5016809;28;20037;-75
2023/10/17 03:29:23;;;;;;;0.00;0.00;;;2.40;99.90;;;;;;5017344;28;20415;-76
2023/10/17 03:31:53;;;;;;;0.00;0.00;;;2.50;99.90;;;;;;5017064;28;20042;-76
2023/10/17 03:34:34;;;;;;;0.00;0.00;;;2.50;99.90;;;;;;5017183;28;20389;-74
2023/10/17 03:37:26;;;;;;;0.00;0.00;;;2.40;99.90;;;;;;5017034;28;20056;-75
2023/10/17 03:39:51;;;;;;;0.00;0.00;;;2.40;99.90;;;;;;5017051;28;20093;-76
2023/10/17 03:42:31;;;;;;;0.55;0.55;;;2.40;99.90;;;;;;5016620;28;20531;-75
2023/10/17 03:44:56;;;;;;;0.00;0.00;;;2.30;99.90;;;;;;5030729;28;20041;-76
2023/10/17 03:47:22;;;;;;;0.00;0.00;;;2.10;99.90;;;;;;5016807;28;20109;-75
2023/10/17 03:49:48;;;;;;;0.08;0.08;;;2.10;99.90;;;;;;5016792;28;20121;-76
2023/10/17 03:52:16;;;;;;;0.00;0.00;;;2.10;99.90;;;;;;5015198;28;20038;-74
2023/10/17 03:54:44;;;;;;;0.00;0.00;;;2.10;99.90;;;;;;5014978;28;20103;-75
2023/10/17 03:57:16;;;;;;;0.00;0.00;;;2.10;99.90;;;;;;5016151;28;20057;-76
2023/10/17 03:59:43;;;;;;;0.10;0.10;;;2.10;99.90;;;;;;5016390;28;20034;-76
2023/10/17 04:02:17;;;;;;;0.98;0.98;;;2.10;99.90;;;;;;5016065;28;20045;-76
2023/10/17 04:04:50;;;;;;;0.00;0.00;;;2.10;99.90;;;;;;5016574;28;20493;-76
2023/10/17 04:07:16;;;;;;;0.38;0.38;;;2.20;99.90;;;;;;5015889;28;20092;-76
2023/10/17 04:12:39;;;;;;;0.05;0.05;;;2.40;99.90;;;;;;5016562;28;20107;-76
2023/10/17 04:15:08;;;;;;;0.00;0.00;;;2.40;99.90;;;;;;5015142;28;20522;-75
2023/10/17 04:17:36;;;;;;;0.38;0.38;;;2.60;99.90;;;;;;5016032;28;20068;-75
2023/10/17 04:20:12;;;;;;;0.00;0.00;;;2.70;99.90;;;;;;5016289;28;20126;-75
2023/10/17 04:22:43;;;;;;;0.20;0.20;;;2.80;99.90;;;;;;5015002;28;20384;-75
2023/10/17 04:28:07;;;;;;;1.55;0.57;;;2.80;99.90;;;;;;5024789;28;20085;-75
2023/10/17 04:30:40;;;;;;;0.10;0.10;;;2.90;99.90;;;;;;5014975;28;20057;-76
2023/10/17 04:33:09;;;;;;;0.45;0.45;;;3.00;99.90;;;;;;5014922;28;20049;-75
2023/10/17 04:35:44;;;;;;;0.00;0.00;;;3.00;99.90;;;;;;5015280;28;20045;-76
2023/10/17 04:38:16;;;;;;;0.00;0.00;;;3.00;99.90;;;;;;5017876;28;20057;-76
2023/10/17 04:40:50;;;;;;;0.52;0.52;;;3.00;99.90;;;;;;5014122;28;20046;-76
2023/10/17 04:46:01;;;;;;;0.00;0.00;;;3.10;99.90;;;;;;5008921;28;20516;-76
2023/10/17 04:48:35;;;;;;;0.03;0.03;;;3.10;99.90;;;;;;5016414;28;20042;-76
2023/10/17 04:54:10;;;;;;;0.00;0.00;;;3.30;99.90;;;;;;5014255;28;20491;-75
2023/10/17 04:56:59;;;;;;;0.00;0.00;;;3.40;99.90;;;;;;5015020;28;20459;-78
2023/10/17 06:18:42;;;;;;;0.17;0.17;;;5.80;99.90;;;;;;5011944;28;20407;-76
2023/10/17 06:21:17;;;;;;;0.65;0.38;;;5.90;99.90;;;;;;5018478;28;20046;-75
2023/10/17 06:34:18;;;;;;;0.00;0.00;;;6.10;99.90;;;;;;5018902;28;20511;-77
2023/10/17 06:36:49;;;;;;;0.08;0.08;;;6.10;99.90;;;;;;5017433;28;20038;-77
2023/10/17 06:39:19;;;;;;;0.22;0.22;;;6.20;99.90;;;;;;5018262;28;20068;-77
2023/10/17 06:41:47;;;;;;;0.03;0.03;;;6.20;99.90;;;;;;5017817;28;20494;-76
2023/10/17 06:44:23;;;;;;;0.10;0.10;;;6.30;99.90;;;;;;5017942;28;20042;-77
2023/10/17 06:46:57;;;;;;;0.22;0.20;;;6.30;99.90;;;;;;5016175;28;20057;-76
2023/10/17 06:55:07;;;;;;;0.47;0.47;;;6.50;99.90;;;;;;5017482;28;20443;-76
2023/10/17 06:57:36;;;;;;;15.07;1.00;;;6.60;99.90;;;;;;5015677;28;20050;-76
2023/10/17 07:02:49;;;;;;;0.10;0.10;;;6.70;99.90;;;;;;5017655;28;20049;-75
2023/10/17 07:05:21;;;;;;;0.63;0.45;;;6.80;99.90;;;;;;5017055;28;20063;-76
2023/10/17 07:07:52;;;;;;;0.30;0.30;;;6.80;99.90;;;;;;5015710;28;20484;-76
2023/10/17 07:13:39;;;;;;;0.63;0.63;;;7.00;99.90;;;;;;5016799;28;20049;-76
2023/10/17 07:16:11;;;;;;;0.05;0.05;;;7.10;99.90;;;;;;5013590;28;20057;-77
2023/10/17 07:18:44;;;;;;;0.20;0.20;;;7.20;99.90;;;;;;5011465;28;20045;-77
2023/10/17 07:23:43;;;;;;;0.40;0.40;;;7.30;99.90;;;;;;5017339;28;20042;-77
2023/10/17 07:26:52;;;;;;;0.30;0.30;;;7.30;99.90;;;;;;5016619;28;20049;-77
2023/10/17 07:28:59;;;;;;;1.95;1.13;;;7.30;99.90;;;;;;5016453;28;20412;-77
2023/10/17 07:31:25;;;;;;;0.00;0.00;;;7.50;99.90;;;;;;5017259;28;20046;-77
2023/10/17 07:34:36;;;;;;;0.17;0.17;;;7.60;99.90;;;;;;5049279;28;20048;-76
2023/10/17 07:36:37;;;;;;;0.17;0.17;;;7.80;99.90;;;;;;5019651;28;20064;-76
2023/10/17 07:39:07;;;;;;;0.30;0.20;;;7.90;99.90;;;;;;5016615;28;20033;-77
2023/10/17 07:41:36;;;;;;;1.17;0.70;;;8.10;99.90;;;;;;5016579;28;20082;-77
2023/10/17 07:44:09;;;;;;;0.03;0.03;;;8.00;99.90;;;;;;5016215;28;20096;-77
2023/10/17 07:46:38;;;;;;;0.55;0.40;;;8.10;99.90;;;;;;5015223;28;20498;-76
2023/10/17 07:49:04;;;;;;;0.30;0.30;;;8.20;99.90;;;;;;5017257;28;20038;-76
2023/10/17 07:51:31;;;;;;;3.90;1.08;;;8.30;99.90;;;;;;5014749;28;20419;-76
2023/10/17 07:53:57;;;;;;;0.95;0.43;;;8.20;99.90;;;;;;5014539;28;20033;-76
2023/10/17 07:56:25;;;;;;;0.10;0.10;;;8.30;99.90;;;;;;5013557;28;20081;-76
2023/10/17 07:58:59;;;;;;;0.20;0.20;;;8.40;99.90;;;;;;5014332;28;20120;-76
2023/10/17 08:01:41;;;;;;;1.35;0.50;;;8.50;99.90;;;;;;5012556;28;20117;-76
2023/10/17 08:06:42;;;;;;;0.65;0.50;;;8.80;99.90;;;;;;5012877;28;20527;-76
2023/10/17 08:11:51;;;;;;;2.10;0.85;;;9.00;99.90;;;;;;5008755;28;20057;-76
2023/10/17 08:14:18;;;;;;;1.42;0.68;;;9.20;99.90;;;;;;5013985;28;20050;-76
2023/10/17 08:16:44;;;;;;;0.70;0.25;;;9.30;99.90;;;;;;5013391;28;20049;-76
2023/10/17 08:19:12;;;;;;;0.98;0.70;;;9.20;99.90;;;;;;5013422;28;20042;-76
2023/10/17 08:24:26;;;;;;;0.00;0.00;;;9.10;99.90;;;;;;5007511;28;20526;-77
2023/10/17 08:27:13;;;;;;;0.55;0.35;;;9.10;1.00;;;;;;5009406;28;20045;-77
2023/10/17 08:29:42;;;;;;;1.77;0.45;;;9.00;99.90;;;;;;5010070;28;20041;-77
2023/10/17 08:34:45;;;;;;;1.55;0.32;;;9.00;1.00;;;;;;5010112;28;20068;-77
2023/10/17 08:37:11;;;;;;;0.20;0.20;;;9.10;66.50;;;;;;5010169;28;20049;-77
2023/10/17 08:42:13;;;;;;;0.10;0.05;;;9.30;99.90;;;;;;5010420;28;20053;-77
2023/10/17 08:44:46;;;;;;;0.00;0.00;;;9.30;99.90;;;;;;5009084;28;20157;-77
2023/10/17 08:47:16;;;;;;;1.55;0.85;;;9.20;1.00;;;;;;5010329;28;20050;-77
2023/10/17 08:49:44;;;;;;;2.92;0.88;;;9.10;99.90;;;;;;5010416;28;20377;-77
2023/10/17 08:52:35;;;;;;;0.13;0.13;;;9.00;1.00;;;;;;5009953;28;20054;-77
2023/10/17 08:55:02;;;;;;;0.52;0.52;;;9.00;99.90;;;;;;5008486;28;20491;-77
2023/10/17 08:57:29;;;;;;;1.02;0.03;;;9.00;62.50;;;;;;5010129;28;20050;-77
2023/10/17 09:02:43;;;;;;;0.25;0.17;;;8.90;99.90;;;;;;5008094;28;20041;-77
2023/10/17 09:05:17;;;;;;;0.03;0.03;;;8.90;99.90;;;;;;5008841;28;20109;-77
2023/10/17 09:07:45;;;;;;;3.28;1.70;;;8.90;99.90;;;;;;5010580;28;20407;-77
2023/10/17 09:10:31;;;;;;;7.22;1.75;;;8.80;99.90;;;;;;5011395;28;20427;-77
2023/10/17 09:13:52;;;;;;;0.47;0.43;;;8.80;1.00;;;;;;5011665;28;20058;-77
2023/10/17 09:16:13;;;;;;;0.47;0.13;;;9.00;1.00;;;;;;4998772;28;20133;-77
2023/10/17 09:18:47;;;;;;;1.88;0.17;;;8.90;99.90;;;;;;5002941;28;20116;-77
2023/10/17 09:21:13;;;;;;;0.00;0.00;;;9.10;52.70;;;;;;5007916;28;20045;-78
2023/10/17 09:23:41;;;;;;;0.45;0.20;;;9.20;99.90;;;;;;5007265;28;20407;-77
2023/10/17 09:26:10;;;;;;;0.38;0.35;;;9.20;47.90;;;;;;5007873;28;20049;-77
2023/10/17 09:28:36;;;;;;;0.30;0.30;;;9.30;1.00;;;;;;5008275;28;20042;-77
2023/10/17 09:31:06;;;;;;;0.00;0.00;;;9.40;1.00;;;;;;5007904;28;20056;-78
2023/10/17 09:33:34;;;;;;;0.17;0.17;;;10.50;1.00;;;;;;5009442;28;20050;-77
2023/10/17 09:36:04;;;;;;;0.20;0.05;;;9.60;1.00;;;;;;5008741;28;20052;-77
2023/10/17 09:38:31;;;;;;;0.28;0.13;;;9.70;1.00;;;;;;5009731;28;20057;-77
2023/10/17 09:41:01;;;;;;;0.00;0.00;;;9.80;99.90;;;;;;5009950;28;20128;-78
2023/10/17 09:43:29;;;;;;;0.03;0.03;;;9.80;1.00;;;;;;5012172;28;20057;-77
2023/10/17 09:46:02;;;;;;;0.22;0.20;;;9.90;99.90;;;;;;5011994;28;20042;-77
2023/10/17 09:48:34;;;;;;;17.30;0.55;;;10.00;99.90;;;;;;5012924;28;20053;-77
2023/10/17 09:51:01;;;;;;;0.17;0.17;;;10.10;99.90;;;;;;5011899;28;20049;-77
2023/10/17 09:53:31;;;;;;;0.03;0.03;;;10.10;99.90;;;;;;5010431;28;20503;-77
2023/10/17 09:56:00;;;;;;;0.20;0.20;;;10.30;99.90;;;;;;5013249;28;20058;-77
2023/10/17 09:58:30;;;;;;;0.32;0.32;;;10.40;99.90;;;;;;5012429;28;20124;-77
2023/10/17 10:01:14;;;;;;;0.10;0.10;;;10.40;99.90;;;;;;5013430;28;20531;-77
2023/10/17 10:03:41;;;;;;;0.03;0.03;;;10.40;99.90;;;;;;5013244;28;20403;-78
2023/10/17 10:06:27;;;;;;;0.90;0.17;;;10.50;99.90;;;;;;5007106;28;20518;-77
2023/10/17 10:08:54;;;;;;;0.00;0.00;;;10.50;99.90;;;;;;5008809;28;20503;-77
2023/10/17 10:11:20;;;;;;;0.15;0.15;;;10.40;99.90;;;;;;5011430;28;20045;-77
2023/10/17 10:14:08;;;;;;;0.00;0.00;;;10.60;99.90;;;;;;5012987;28;20530;-77
2023/10/17 10:16:49;;;;;;;0.00;0.00;;;10.60;94.70;;;;;;5006364;28;20054;-78
2023/10/17 10:19:16;;;;;;;0.00;0.00;;;10.70;99.90;;;;;;5013195;28;20073;-76
2023/10/17 10:21:58;;;;;;;0.00;0.00;;;10.80;98.40;;;;;;5013005;28;20046;-77
2023/10/17 10:24:26;;;;;;;0.35;0.20;;;11.00;95.30;;;;;;5011186;28;20038;-77
2023/10/17 10:27:11;;;;;;;2.00;0.20;;;11.00;98.70;;;;;;5011535;28;20126;-78
2023/10/17 10:29:40;;;;;;;0.00;0.00;;;11.20;87.10;;;;;;5012945;28;20054;-77
2023/10/17 10:32:06;;;;;;;0.13;0.10;;;11.20;78.80;;;;;;5012225;28;20030;-78
2023/10/17 10:34:35;;;;;;;0.00;0.00;;;11.30;98.30;;;;;;5012440;28;20057;-77
2023/10/17 10:37:03;;;;;;;0.00;0.00;;;11.50;99.90;;;;;;5012498;28;20443;-77
2023/10/17 10:39:32;;;;;;;0.20;0.20;;;11.80;99.90;;;;;;5012613;28;20053;-77
2023/10/17 10:42:06;;;;;;;0.00;0.00;;;12.00;99.90;;;;;;5012341;28;20499;-78
2023/10/17 10:44:41;;;;;;;0.00;0.00;;;12.20;99.90;;;;;;5012330;28;20452;-77
2023/10/17 10:47:08;;;;;;;0.00;0.00;;;12.10;74.40;;;;;;5012450;28;20057;-77
2023/10/17 10:49:33;;;;;;;1.27;0.52;;;11.90;93.40;;;;;;5012238;28;20519;-77
2023/10/17 10:51:59;;;;;;;7.97;0.30;;;12.00;85.40;;;;;;5012360;28;20041;-77
2023/10/17 10:54:45;;;;;;;7.18;1.38;;;12.10;59.60;;;;;;5029150;28;20077;-77
2023/10/17 10:57:12;;;;;;;0.10;0.10;;;12.00;54.50;;;;;;5007473;28;20427;-77
2023/10/17 10:59:49;;;;;;;0.17;0.10;;;12.10;45.40;;;;;;5015192;28;20046;-77
2023/10/17 11:02:14;;;;;;;0.15;0.10;;;12.00;17.30;;;;;;5014700;28;20542;-77
2023/10/17 11:04:40;;;;;;;0.95;0.47;;;12.00;36.10;;;;;;5015257;28;20038;-77
2023/10/17 11:07:24;;;;;;;1.10;0.75;;;12.10;38.00;;;;;;5029977;28;20487;-77
2023/10/17 11:10:10;;;;;;;0.00;0.00;;;12.40;44.90;;;;;;5014300;28;20042;-77
2023/10/17 11:12:37;;;;;;;0.00;0.00;;;12.50;49.00;;;;;;5011989;28;20368;-77
2023/10/17 11:15:12;;;;;;;0.00;0.00;;;12.20;13.10;;;;;;5012445;28;20041;-77
2023/10/17 11:17:39;;;;;;;6.88;0.10;;;12.20;1.00;;;;;;5013199;28;20042;-77
2023/10/17 11:20:19;;;;;;;0.00;0.00;;;12.20;1.00;;;;;;5012936;28;20401;-77
2023/10/17 11:22:46;;;;;;;0.00;0.00;;;12.30;1.20;;;;;;5012224;28;20743;-77
2023/10/17 11:25:31;;;;;;;0.00;0.00;;;12.40;57.00;;;;;;5012814;28;20042;-77
2023/10/17 11:28:00;;;;;;;0.20;0.15;;;12.60;16.40;;;;;;5012876;28;20049;-77
2023/10/17 11:30:33;;;;;;;0.15;0.15;;;12.60;19.20;;;;;;5012667;28;20204;-77
2023/10/17 11:33:06;;;;;;;0.00;0.00;;;12.70;34.30;;;;;;5012436;28;20368;-77
2023/10/17 11:35:34;;;;;;;0.10;0.10;;;13.00;14.80;;;;;;5013428;28;20065;-77
2023/10/17 11:38:01;;;;;;;0.60;0.45;;;13.00;50.00;;;;;;5014767;28;20088;-77
2023/10/17 11:40:30;;;;;;;0.00;0.00;;;13.00;1.00;;;;;;5014484;28;20049;-77
2023/10/17 11:43:12;;;;;;;0.00;0.00;;;13.00;18.40;;;;;;5014113;28;20045;-77
2023/10/17 11:45:40;;;;;;;13.18;0.75;;;13.20;1.00;;;;;;5014032;28;20419;-77
2023/10/17 11:48:27;;;;;;;0.10;0.10;;;13.00;1.00;;;;;;5014720;28;20131;-77
2023/10/17 11:51:06;;;;;;;0.22;0.15;;;13.00;1.00;;;;;;5014678;28;20046;-77
2023/10/17 11:53:33;;;;;;;0.30;0.30;;;12.80;1.00;;;;;;5014622;28;20076;-77
2023/10/17 11:56:01;;;;;;;0.13;0.13;;;12.90;1.00;;;;;;5014250;28;20088;-77
2023/10/17 11:58:29;;;;;;;0.08;0.00;;;12.90;1.00;;;;;;5014816;28;20087;-77
2023/10/17 12:00:55;;;;;;;0.00;0.00;;;12.90;1.00;;;;;;5014599;28;20042;-77
2023/10/17 12:03:21;;;;;;;0.80;0.43;;;12.80;1.00;;;;;;5014813;28;20034;-77
2023/10/17 12:05:47;;;;;;;1.10;0.68;;;12.70;1.00;;;;;;5029545;28;20392;-78
2023/10/17 12:08:31;;;;;;;0.00;0.00;;;12.90;1.00;;;;;;5013430;28;20042;-78
2023/10/17 12:10:57;;;;;;;0.00;0.00;;;13.00;1.00;;;;;;5014524;28;20048;-77
2023/10/17 12:13:22;;;;;;;0.05;0.05;;;13.10;1.00;;;;;;5014279;28;20053;-77
2023/10/17 12:15:48;;;;;;;1.20;0.45;;;13.20;1.00;;;;;;5014498;28;20042;-77
2023/10/17 12:18:14;;;;;;;0.20;0.20;;;13.20;1.00;;;;;;5014581;28;20372;-77
2023/10/17 12:20:43;;;;;;;0.25;0.25;;;12.90;1.00;;;;;;5014441;28;20044;-78
2023/10/17 12:23:12;;;;;;;0.00;0.00;;;13.00;1.00;;;;;;5013510;28;20427;-77
2023/10/17 12:25:41;;;;;;;0.52;0.22;;;13.20;1.00;;;;;;5006390;28;20034;-77
2023/10/17 12:28:07;;;;;;;0.40;0.30;;;13.20;1.00;;;;;;5014162;28;20042;-77
2023/10/17 12:30:36;;;;;;;0.00;0.00;;;13.20;1.00;;;;;;5013982;28;20120;-78
2023/10/17 12:33:04;;;;;;;0.00;0.00;;;13.40;1.00;;;;;;5014078;28;20077;-78
2023/10/17 12:35:29;;;;;;;0.30;0.30;;;13.60;1.00;;;;;;5013584;28;20508;-78
2023/10/17 12:37:59;;;;;;;0.25;0.25;;;13.50;1.00;;;;;;5014176;28;20061;-77
2023/10/17 12:40:25;;;;;;;0.00;0.00;;;13.50;1.00;;;;;;5013896;28;20054;-77
2023/10/17 12:42:53;;;;;;;0.57;0.20;;;13.50;1.00;;;;;;5013646;28;20041;-77
2023/10/17 12:45:19;;;;;;;0.00;0.00;;;13.50;1.00;;;;;;5013830;28;20049;-77
2023/10/17 12:47:45;;;;;;;0.00;0.00;;;13.50;1.00;;;;;;5013529;28;20045;-76
2023/10/17 12:50:15;;;;;;;0.35;0.22;;;13.40;1.00;;;;;;5013636;28;20514;-77
2023/10/17 12:52:41;;;;;;;12.63;0.80;;;13.30;1.00;;;;;;5013202;28;20038;-77
2023/10/17 12:55:13;;;;;;;0.00;0.00;;;13.30;1.00;;;;;;5012912;28;20172;-77
2023/10/17 12:57:39;;;;;;;0.47;0.10;;;13.20;1.00;;;;;;5013251;28;20034;-76
2023/10/17 13:00:09;;;;;;;0.15;0.15;;;13.20;1.00;;;;;;5013094;28;20049;-77
2023/10/17 13:02:38;;;;;;;0.00;0.00;;;13.20;1.00;;;;;;5012650;28;20041;-77
2023/10/17 13:05:11;;;;;;;0.00;0.00;;;13.30;1.00;;;;;;5011314;28;20050;-77
2023/10/17 13:07:40;;;;;;;0.00;0.00;;;13.40;1.00;;;;;;5013082;28;20344;-77
2023/10/17 13:10:07;;;;;;;0.00;0.00;;;13.50;1.00;;;;;;5013009;28;20053;-77
2023/10/17 13:12:33;;;;;;;0.00;0.00;;;13.50;1.00;;;;;;5012525;28;20036;-77
2023/10/17 13:14:59;;;;;;;0.00;0.00;;;13.50;1.00;;;;;;5012690;28;20120;-77
2023/10/17 13:17:25;;;;;;;0.47;0.25;;;13.50;1.00;;;;;;5012004;28;20132;-77
2023/10/17 13:19:52;;;;;;;0.40;0.20;;;13.70;1.00;;;;;;5013058;28;20038;-77
2023/10/17 13:22:21;;;;;;;0.00;0.00;;;13.90;1.00;;;;;;5012553;28;20124;-77
2023/10/17 13:24:50;;;;;;;0.00;0.00;;;13.70;1.00;;;;;;5012568;28;20042;-77
2023/10/17 13:27:15;;;;;;;0.03;0.03;;;13.80;1.00;;;;;;5012670;28;20038;-77
2023/10/17 13:29:42;;;;;;;4.13;0.75;;;13.70;1.00;;;;;;5012749;28;20056;-77
2023/10/17 13:32:08;;;;;;;0.00;0.00;;;13.80;1.00;;;;;;5012787;28;20113;-77
2023/10/17 13:34:36;;;;;;;0.75;0.45;;;13.90;1.00;;;;;;5012675;28;20069;-77
2023/10/17 13:37:05;;;;;;;0.00;0.00;;;14.00;1.00;;;;;;5012955;28;20085;-77
2023/10/17 13:39:36;;;;;;;0.00;0.00;;;14.00;1.00;;;;;;5012764;28;20046;-77
2023/10/17 13:42:02;;;;;;;0.00;0.00;;;14.00;1.00;;;;;;5012978;28;20042;-77
2023/10/17 13:44:28;;;;;;;0.38;0.00;;;13.80;1.00;;;;;;5012286;28;20080;-77
2023/10/17 13:46:54;;;;;;;0.15;0.10;;;14.00;1.00;;;;;;5004512;28;20084;-77
2023/10/17 13:49:20;;;;;;;0.00;0.00;;;13.90;1.00;;;;;;5011516;28;20077;-77
2023/10/17 13:51:46;;;;;;;0.00;0.00;;;13.90;1.00;;;;;;5012391;28;20084;-77
2023/10/17 13:54:16;;;;;;;0.00;0.00;;;13.90;1.00;;;;;;5012490;28;20045;-77
2023/10/17 13:56:42;;;;;;;0.00;0.00;;;14.10;1.00;;;;;;5011052;28;20124;-77
2023/10/17 13:59:13;;;;;;;0.00;0.00;;;14.20;1.00;;;;;;5012567;28;20121;-77
2023/10/17 14:01:41;;;;;;;0.00;0.00;;;14.00;1.00;;;;;;5012418;28;20456;-77
2023/10/17 14:04:11;;;;;;;0.00;0.00;;;14.00;1.00;;;;;;5012580;28;20037;-77
2023/10/17 14:06:42;;;;;;;2.47;0.52;;;14.00;1.00;;;;;;5007460;28;20096;-77
2023/10/17 14:09:17;;;;;;;0.00;0.00;;;14.20;1.00;;;;;;5012519;28;20124;-77
2023/10/17 14:11:46;;;;;;;0.00;0.00;;;15.20;1.00;;;;;;5012112;28;20566;-77
2023/10/17 14:14:13;;;;;;;0.40;0.22;;;14.00;1.00;;;;;;5012366;28;20690;-77
2023/10/17 14:16:42;;;;;;;0.10;0.00;;;13.90;1.00;;;;;;5006248;28;20161;-77
2023/10/17 14:19:28;;;;;;;0.00;0.00;;;14.00;1.00;;;;;;5012499;28;20076;-77
2023/10/17 14:27:24;;;;;;;0.00;0.00;;;13.90;1.00;;;;;;5012075;28;20570;-77
2023/10/17 14:29:51;;;;;;;0.00;0.00;;;13.80;99.90;;;;;;5015132;28;20073;-77
2023/10/17 14:32:20;;;;;;;0.00;0.00;;;13.90;1.00;;;;;;5015356;28;20042;-77
2023/10/17 14:34:47;;;;;;;0.20;0.20;;;14.10;1.00;;;;;;5015666;28;20038;-77
2023/10/17 14:37:17;;;;;;;0.10;0.10;;;14.50;1.00;;;;;;5015835;28;20449;-77
2023/10/17 14:39:43;;;;;;;0.28;0.20;;;14.40;1.00;;;;;;5015716;28;20045;-77
2023/10/17 14:42:17;;;;;;;0.20;0.20;;;14.20;1.00;;;;;;5015428;28;20412;-77
2023/10/17 14:44:46;;;;;;;0.60;0.32;;;13.80;99.90;;;;;;5015186;28;20046;-77
2023/10/17 14:47:14;;;;;;;0.00;0.00;;;13.60;99.90;;;;;;5015465;28;20038;-77
2023/10/17 14:49:46;;;;;;;0.00;0.00;;;13.80;99.90;;;;;;5015576;28;20046;-77
2023/10/17 14:52:13;;;;;;;0.00;0.00;;;13.90;99.90;;;;;;5015100;28;20038;-78
2023/10/17 14:54:44;;;;;;;0.00;0.00;;;14.10;1.00;;;;;;5015254;28;20046;-77
2023/10/17 14:57:10;;;;;;;0.00;0.00;;;14.20;1.00;;;;;;5015167;28;20059;-77
2023/10/17 14:59:40;;;;;;;0.25;0.10;;;14.40;1.00;;;;;;5015398;28;20046;-77
2023/10/17 15:02:07;;;;;;;0.00;0.00;;;14.00;99.90;;;;;;5015059;28;20090;-77
2023/10/17 15:04:35;;;;;;;0.10;0.08;;;13.70;99.90;;;;;;5015448;28;20125;-77
2023/10/17 15:07:00;;;;;;;2.00;0.38;;;13.80;99.90;;;;;;5014979;28;20553;-77
2023/10/17 15:09:26;;;;;;;0.00;0.00;;;13.80;99.90;;;;;;5015089;28;20045;-77
2023/10/17 15:11:53;;;;;;;0.00;0.00;;;13.70;99.90;;;;;;5014796;28;20057;-77
2023/10/17 15:14:20;;;;;;;0.00;0.00;;;13.70;99.90;;;;;;5015498;28;20042;-77
2023/10/17 15:16:46;;;;;;;0.00;0.00;;;13.60;99.90;;;;;;5015219;28;20050;-77
2023/10/17 15:19:12;;;;;;;0.00;0.00;;;13.70;99.90;;;;;;5015024;28;20515;-77
2023/10/17 15:21:37;;;;;;;0.20;0.10;;;13.60;1.00;;;;;;5014617;28;20165;-77
2023/10/17 15:24:03;;;;;;;2.20;0.70;;;13.80;1.00;;;;;;5014958;28;20073;-77
2023/10/17 15:26:29;;;;;;;0.00;0.00;;;13.60;99.90;;;;;;5014536;28;20046;-77
2023/10/17 15:28:54;;;;;;;0.15;0.08;;;13.60;99.90;;;;;;5014754;28;20042;-77
2023/10/17 15:31:20;;;;;;;0.00;0.00;;;13.70;99.90;;;;;;5014636;28;20046;-77